createdAt,value
2019-06-20T00:00:09.952Z,15.28
2019-06-20T00:02:40.950Z,15.98
2019-06-20T00:05:09.971Z,14.98
2019-06-20T00:07:38.998Z,14.83
2019-06-20T00:10:07.929Z,14.20
2019-06-20T00:12:36.986Z,15.68
2019-06-20T00:15:06.057Z,16.70
2019-06-20T00:17:35.475Z,13.85
2019-06-20T00:20:05.432Z,13.70
2019-06-20T00:22:34.474Z,15.45
2019-06-20T00:25:03.429Z,13.20
2019-06-20T00:27:32.390Z,13.18
2019-06-20T00:30:01.331Z,14.60
2019-06-20T00:32:30.448Z,12.50
2019-06-20T00:34:59.411Z,12.23
2019-06-20T00:37:28.710Z,15.63
2019-06-20T00:42:25.888Z,12.63
2019-06-20T00:44:59.064Z,15.05
2019-06-20T00:47:29.941Z,14.13
2019-06-20T00:49:58.682Z,13.45
2019-06-20T00:54:55.734Z,11.88
2019-06-20T00:59:52.965Z,10.93
2019-06-20T01:02:22.048Z,11.35
2019-06-20T01:04:51.023Z,11.12
2019-06-20T01:07:20.080Z,12.43
2019-06-20T01:09:48.918Z,13.83
2019-06-20T01:12:19.290Z,12.50
2019-06-20T01:14:48.292Z,14.30
2019-06-20T01:17:17.430Z,13.93
2019-06-20T01:19:46.342Z,13.68
2019-06-20T01:22:15.418Z,12.15
2019-06-20T01:24:44.483Z,12.28
2019-06-20T01:27:13.480Z,11.28
2019-06-20T01:29:42.415Z,11.60
2019-06-20T01:32:11.432Z,11.75
2019-06-20T01:34:40.398Z,12.65
2019-06-20T01:37:09.383Z,13.38
2019-06-20T01:39:38.410Z,13.98
2019-06-20T01:42:07.405Z,14.03
2019-06-20T01:44:36.485Z,12.53
2019-06-20T01:47:05.403Z,13.38
2019-06-20T01:49:34.494Z,12.82
2019-06-20T01:52:05.421Z,13.45
2019-06-20T01:54:34.585Z,12.88
2019-06-20T01:57:03.749Z,12.20
2019-06-20T01:59:33.694Z,13.28
2019-06-20T02:05:04.870Z,12.25
2019-06-20T02:07:34.295Z,12.55
2019-06-20T02:10:03.893Z,13.68
2019-06-20T02:12:32.944Z,13.15
2019-06-20T02:15:02.092Z,14.75
2019-06-20T02:17:32.561Z,13.72
2019-06-20T02:20:01.656Z,13.85
2019-06-20T02:24:59.120Z,15.30
2019-06-20T02:27:27.910Z,16.27
2019-06-20T02:29:56.925Z,14.55
2019-06-20T02:32:25.768Z,14.68
2019-06-20T02:34:55.696Z,14.47
2019-06-20T02:37:29.752Z,14.25
2019-06-20T02:42:27.041Z,13.75
2019-06-20T02:44:56.070Z,17.55
2019-06-20T02:47:24.924Z,15.15
2019-06-20T02:49:55.926Z,14.73
2019-06-20T02:52:24.949Z,12.98
2019-06-20T02:54:53.703Z,14.55
2019-06-20T02:57:22.730Z,14.85
2019-06-20T03:02:19.725Z,13.98
2019-06-20T03:07:16.706Z,14.78
2019-06-20T03:12:13.708Z,15.68
2019-06-20T03:14:45.711Z,15.90
2019-06-20T03:17:13.634Z,17.60
2019-06-20T03:19:42.622Z,16.40
2019-06-20T03:22:11.700Z,17.60
2019-06-20T03:27:08.725Z,17.23
2019-06-20T03:32:07.135Z,16.62
2019-06-20T03:34:36.085Z,13.25
2019-06-20T03:37:05.433Z,12.75
2019-06-20T03:39:34.507Z,10.72
2019-06-20T03:43:16.302Z,10.00
2019-06-20T03:45:45.361Z,10.00
2019-06-20T03:48:14.514Z,12.10
2019-06-20T03:53:12.947Z,14.50
2019-06-20T03:55:41.938Z,13.60
2019-06-20T03:58:11.296Z,17.20
2019-06-20T04:00:40.427Z,15.43
2019-06-20T04:03:09.571Z,15.85
2019-06-20T04:05:38.430Z,16.45
2019-06-20T04:08:07.409Z,14.68
2019-06-20T04:10:36.476Z,16.67
2019-06-20T04:13:05.447Z,16.42
2019-06-20T04:15:34.732Z,15.68
2019-06-20T04:20:39.559Z,10.98
2019-06-20T04:23:08.718Z,10.58
2019-06-20T04:25:37.841Z,10.10
2019-06-20T04:28:06.734Z,9.30
2019-06-20T04:30:35.949Z,8.15
2019-06-20T04:33:04.967Z,8.35
2019-06-20T04:35:33.928Z,9.08
2019-06-20T04:38:02.951Z,9.10
2019-06-20T04:40:31.925Z,8.50
2019-06-20T04:43:01.920Z,7.87
2019-06-20T04:45:39.786Z,8.95
2019-06-20T04:48:08.720Z,8.97
2019-06-20T04:53:07.046Z,7.50
2019-06-20T04:55:35.932Z,6.45
2019-06-20T04:58:06.430Z,7.17
2019-06-20T05:00:35.571Z,7.40
2019-06-20T05:03:08.865Z,6.10
2019-06-20T05:05:38.967Z,6.03
2019-06-20T05:08:09.208Z,6.22
2019-06-20T05:10:37.962Z,6.92
2019-06-20T05:13:06.957Z,6.37
2019-06-20T05:15:51.494Z,7.00
2019-06-20T05:18:06.801Z,6.37
2019-06-20T05:20:35.767Z,6.80
2019-06-20T05:23:06.496Z,6.40
2019-06-20T05:25:42.419Z,5.85
2019-06-20T05:28:14.509Z,6.35
2019-06-20T05:30:49.431Z,5.70
2019-06-20T05:33:19.352Z,6.00
2019-06-20T05:35:49.035Z,6.25
2019-06-20T05:38:18.497Z,6.20
2019-06-20T05:40:47.470Z,5.97
2019-06-20T05:43:19.428Z,6.10
2019-06-20T05:45:49.048Z,6.28
2019-06-20T05:48:19.769Z,6.00
2019-06-20T05:53:18.929Z,6.20
2019-06-20T05:55:48.492Z,6.25
2019-06-20T05:58:17.505Z,5.22
2019-06-20T06:00:47.764Z,5.12
2019-06-20T06:03:17.097Z,8.15
2019-06-20T06:05:45.983Z,4.75
2019-06-20T06:08:14.709Z,3.58
2019-06-20T06:13:11.963Z,3.58
2019-06-20T06:15:42.911Z,3.20
2019-06-20T06:18:12.145Z,3.33
2019-06-20T06:20:44.662Z,3.52
2019-06-20T06:23:12.428Z,3.60
2019-06-20T06:25:43.124Z,3.08
2019-06-20T06:28:12.699Z,3.08
2019-06-20T06:30:41.974Z,2.80
2019-06-20T06:33:10.958Z,2.87
2019-06-20T06:35:40.154Z,3.37
2019-06-20T06:38:10.949Z,2.67
2019-06-20T06:40:39.987Z,2.95
2019-06-20T06:43:08.962Z,2.80
2019-06-20T06:45:39.592Z,2.60
2019-06-20T06:50:37.091Z,2.77
2019-06-20T06:53:08.491Z,2.67
2019-06-20T06:55:38.581Z,2.70
2019-06-20T06:58:07.716Z,2.55
2019-06-20T07:03:05.574Z,3.02
2019-06-20T07:05:35.935Z,2.50
2019-06-20T07:08:04.960Z,2.45
2019-06-20T07:10:34.293Z,2.52
2019-06-20T07:13:03.737Z,2.70
2019-06-20T07:15:32.701Z,2.25
2019-06-20T07:20:31.363Z,1.82
2019-06-20T07:23:00.564Z,2.05
2019-06-20T07:25:29.661Z,2.60
2019-06-20T07:30:27.053Z,2.15
2019-06-20T07:32:57.063Z,2.17
2019-06-20T07:38:20.038Z,1.90
2019-06-20T07:40:48.943Z,1.72
2019-06-20T07:43:19.294Z,1.30
2019-06-20T07:46:02.223Z,1.10
2019-06-20T07:48:21.954Z,1.35
2019-06-20T07:50:52.117Z,1.50
2019-06-20T07:53:21.747Z,1.12
2019-06-20T07:58:19.530Z,1.32
2019-06-20T08:00:48.550Z,1.30
2019-06-20T08:03:17.562Z,1.50
2019-06-20T08:05:50.818Z,1.50
2019-06-20T08:08:21.314Z,1.37
2019-06-20T08:10:52.323Z,1.22
2019-06-20T08:13:22.802Z,1.20
2019-06-20T08:15:52.574Z,1.35
2019-06-20T08:20:50.580Z,1.30
2019-06-20T08:23:20.339Z,1.50
2019-06-20T08:25:50.660Z,1.30
2019-06-20T08:35:48.848Z,1.30
2019-06-20T08:38:18.714Z,1.35
2019-06-20T08:43:15.996Z,1.50
2019-06-20T08:45:45.023Z,1.60
2019-06-20T08:48:13.967Z,1.12
2019-06-20T08:50:43.589Z,1.32
2019-06-20T08:53:13.845Z,1.40
2019-06-20T08:55:42.879Z,1.25
2019-06-20T08:58:11.791Z,1.60
2019-06-20T09:00:41.123Z,1.98
2019-06-20T09:03:11.497Z,1.87
2019-06-20T09:05:40.514Z,1.60
2019-06-20T09:10:40.619Z,1.40
2019-06-20T09:13:12.012Z,1.40
2019-06-20T09:15:41.995Z,1.25
2019-06-20T09:18:11.702Z,1.40
2019-06-20T09:20:40.943Z,1.50
2019-06-20T09:23:10.994Z,1.30
2019-06-20T09:25:40.457Z,1.27
2019-06-20T09:28:09.584Z,1.37
2019-06-20T09:33:07.733Z,1.20
2019-06-20T09:38:06.442Z,1.40
2019-06-20T09:40:35.746Z,1.22
2019-06-20T09:43:05.502Z,1.47
2019-06-20T09:45:36.165Z,1.20
2019-06-20T09:48:05.463Z,1.67
2019-06-20T09:50:36.420Z,1.75
2019-06-20T09:53:05.709Z,1.12
2019-06-20T09:58:03.136Z,1.20
2019-06-20T10:00:32.605Z,1.47
2019-06-20T10:03:02.730Z,1.50
2019-06-20T10:05:32.136Z,1.40
2019-06-20T10:08:01.145Z,1.00
2019-06-20T10:10:32.565Z,1.20
2019-06-20T10:15:31.500Z,1.55
2019-06-20T10:18:00.447Z,1.25
2019-06-20T10:20:30.094Z,1.50
2019-06-20T10:22:59.050Z,1.60
2019-06-20T10:25:28.446Z,1.60
2019-06-20T10:27:59.980Z,1.30
2019-06-20T10:30:29.361Z,1.40
2019-06-20T10:32:58.430Z,1.40
2019-06-20T10:35:27.462Z,1.35
2019-06-20T10:37:58.041Z,1.40
2019-06-20T10:40:27.103Z,1.42
2019-06-20T10:42:56.860Z,1.40
2019-06-20T10:45:30.242Z,1.50
2019-06-20T10:47:59.560Z,1.30
2019-06-20T10:52:57.317Z,1.60
2019-06-20T10:55:26.890Z,1.77
2019-06-20T10:57:56.495Z,1.47
2019-06-20T11:00:31.495Z,2.08
2019-06-20T11:05:28.130Z,1.67
2019-06-20T11:07:57.518Z,1.65
2019-06-20T11:12:56.511Z,1.60
2019-06-20T11:17:56.566Z,1.40
2019-06-20T11:20:26.301Z,1.62
2019-06-20T11:22:55.884Z,1.65
2019-06-20T11:25:25.008Z,1.40
2019-06-20T11:27:54.770Z,1.75
2019-06-20T11:32:54.468Z,1.40
2019-06-20T11:35:24.830Z,1.70
2019-06-20T11:37:54.474Z,1.85
2019-06-20T11:42:13.112Z,1.70
2019-06-20T11:44:43.073Z,1.82
2019-06-20T11:47:12.621Z,1.40
2019-06-20T11:52:10.935Z,1.05
2019-06-20T11:56:10.824Z,1.30
2019-06-20T11:58:42.737Z,0.93
2019-06-20T12:01:12.022Z,1.47
2019-06-20T12:03:42.477Z,0.90
2019-06-20T12:06:11.837Z,1.27
2019-06-20T12:08:40.757Z,1.40
2019-06-20T12:13:39.338Z,1.10
2019-06-20T12:16:08.940Z,1.10
2019-06-20T12:18:38.665Z,1.32
2019-06-20T12:21:08.932Z,1.27
2019-06-20T12:23:39.088Z,1.25
2019-06-20T12:26:09.074Z,1.30
2019-06-20T12:28:39.657Z,1.20
2019-06-20T12:31:19.013Z,1.27
2019-06-20T12:33:41.040Z,1.02
2019-06-20T12:36:10.154Z,1.10
2019-06-20T12:38:39.893Z,1.32
2019-06-20T12:41:10.158Z,1.40
2019-06-20T12:43:40.255Z,1.47
2019-06-20T12:46:09.395Z,1.37
2019-06-20T12:48:39.932Z,1.57
2019-06-20T12:51:09.571Z,1.30
2019-06-20T12:53:39.265Z,1.22
2019-06-20T12:56:09.501Z,1.30
2019-06-20T12:58:39.458Z,1.30
2019-06-20T13:01:09.411Z,1.30
2019-06-20T13:06:31.778Z,1.50
2019-06-20T13:09:00.708Z,1.50
2019-06-20T13:13:57.731Z,1.50
2019-06-20T13:18:54.735Z,1.90
2019-06-20T13:23:52.007Z,1.70
2019-06-20T13:26:21.600Z,1.80
2019-06-20T13:31:21.138Z,1.77
2019-06-20T13:33:49.940Z,1.82
2019-06-20T13:36:18.966Z,1.70
2019-06-20T13:38:48.840Z,1.80
2019-06-20T13:41:18.310Z,1.70
2019-06-20T13:43:47.453Z,1.60
2019-06-20T13:46:16.586Z,1.92
2019-06-20T13:48:45.835Z,2.50
2019-06-20T13:51:14.937Z,1.90
2019-06-20T13:53:44.271Z,1.60
2019-06-20T13:56:13.440Z,1.85
2019-06-20T13:58:42.523Z,1.40
2019-06-20T14:01:11.558Z,2.20
2019-06-20T14:03:43.622Z,1.30
2019-06-20T14:06:11.588Z,1.60
2019-06-20T14:08:42.342Z,1.20
2019-06-20T14:13:42.774Z,1.00
2019-06-20T14:16:12.922Z,1.07
2019-06-20T14:18:44.373Z,1.20
2019-06-20T14:23:44.273Z,1.00
2019-06-20T14:28:43.122Z,1.00
2019-06-20T14:31:13.524Z,1.30
2019-06-20T14:33:44.178Z,1.02
2019-06-20T14:36:13.980Z,1.15
2019-06-20T14:38:44.493Z,0.90
2019-06-20T14:41:14.494Z,1.22
2019-06-20T14:43:44.696Z,1.27
2019-06-20T14:46:15.309Z,1.12
2019-06-20T14:48:45.499Z,1.10
2019-06-20T14:51:15.926Z,1.20
2019-06-20T14:53:45.682Z,1.17
2019-06-20T14:56:15.177Z,1.20
2019-06-20T14:58:44.952Z,1.27
2019-06-20T15:01:14.602Z,1.10
2019-06-20T15:03:45.650Z,1.70
2019-06-20T15:06:15.878Z,1.10
2019-06-20T15:08:45.792Z,1.05
2019-06-20T15:11:15.994Z,1.20
2019-06-20T15:13:46.196Z,1.37
2019-06-20T15:16:16.506Z,1.10
2019-06-20T15:18:48.353Z,1.10
2019-06-20T15:23:47.756Z,1.32
2019-06-20T15:26:17.634Z,1.22
2019-06-20T15:31:17.539Z,1.07
2019-06-20T15:33:47.897Z,1.20
2019-06-20T15:36:18.562Z,1.40
2019-06-20T15:41:19.646Z,1.30
2019-06-20T15:43:53.660Z,1.10
2019-06-20T15:46:24.341Z,1.22
2019-06-20T15:48:59.890Z,1.30
2019-06-20T15:53:58.050Z,1.27
2019-06-20T15:56:27.801Z,1.10
2019-06-20T15:58:57.609Z,1.25
2019-06-20T16:03:55.824Z,1.20
2019-06-20T16:06:25.842Z,1.52
2019-06-20T16:08:56.591Z,1.37
2019-06-20T16:11:28.118Z,1.17
2019-06-20T16:13:57.616Z,1.60
2019-06-20T16:16:27.492Z,1.22
2019-06-20T16:18:56.499Z,1.10
2019-06-20T16:21:26.022Z,1.30
2019-06-20T16:23:54.977Z,1.30
2019-06-20T16:26:24.044Z,1.10
2019-06-20T16:28:53.141Z,1.10
2019-06-20T16:31:26.895Z,1.10
2019-06-20T16:36:22.072Z,1.12
2019-06-20T16:38:51.518Z,1.30
2019-06-20T16:41:21.082Z,1.50
2019-06-20T16:43:50.129Z,1.50
2019-06-20T16:46:19.413Z,1.80
2019-06-20T16:48:48.841Z,1.60
2019-06-20T16:51:18.023Z,1.20
2019-06-20T16:53:47.120Z,1.25
2019-06-20T16:56:16.330Z,1.12
2019-06-20T16:58:45.421Z,1.45
2019-06-20T17:01:14.647Z,1.10
2019-06-20T17:03:44.142Z,1.50
2019-06-20T17:06:13.636Z,1.40
2019-06-20T17:08:42.791Z,1.35
2019-06-20T17:11:12.500Z,1.27
2019-06-20T17:13:41.722Z,1.30
2019-06-20T17:16:16.430Z,1.32
2019-06-20T17:18:45.623Z,1.55
2019-06-20T17:21:14.418Z,1.30
2019-06-20T17:23:43.295Z,1.17
2019-06-20T17:26:12.945Z,1.20
2019-06-20T17:28:42.305Z,1.47
2019-06-20T17:31:11.451Z,1.47
2019-06-20T17:33:54.079Z,1.42
2019-06-20T17:36:18.388Z,1.57
2019-06-20T17:38:42.620Z,1.60
2019-06-20T17:41:11.584Z,1.40
2019-06-20T17:43:40.607Z,1.40
2019-06-20T17:46:09.644Z,1.70
2019-06-20T17:48:38.713Z,1.20
2019-06-20T17:53:36.847Z,1.10
2019-06-20T17:56:06.315Z,1.02
2019-06-20T17:58:36.749Z,1.20
2019-06-20T18:03:34.016Z,1.22
2019-06-20T18:06:03.338Z,1.40
2019-06-20T18:08:32.808Z,1.55
2019-06-20T18:11:02.142Z,1.50
2019-06-20T18:13:31.504Z,1.30
2019-06-20T18:16:00.601Z,1.52
2019-06-20T18:18:29.767Z,1.72
2019-06-20T18:20:58.993Z,1.47
2019-06-20T18:23:28.181Z,1.52
2019-06-20T18:25:57.361Z,1.67
2019-06-20T18:28:26.929Z,1.25
2019-06-20T18:30:56.320Z,1.47
2019-06-20T18:33:25.871Z,1.52
2019-06-20T18:35:55.529Z,1.27
2019-06-20T18:38:29.182Z,1.40
2019-06-20T18:41:02.531Z,1.50
2019-06-20T18:43:31.638Z,1.47
2019-06-20T18:48:29.520Z,1.52
2019-06-20T18:50:58.986Z,1.32
2019-06-20T18:53:28.314Z,1.37
2019-06-20T18:55:57.619Z,1.35
2019-06-20T19:00:56.650Z,1.67
2019-06-20T19:03:25.766Z,1.60
2019-06-20T19:05:55.017Z,1.60
2019-06-20T19:08:24.703Z,1.60
2019-06-20T19:10:54.105Z,1.62
2019-06-20T19:13:23.673Z,1.82
2019-06-20T19:15:54.346Z,1.60
2019-06-20T19:18:23.905Z,1.45
2019-06-20T19:20:53.200Z,1.72
2019-06-20T19:23:47.364Z,1.75
2019-06-20T19:26:16.657Z,1.75
2019-06-20T19:31:14.914Z,1.70
2019-06-20T19:33:44.550Z,1.80
2019-06-20T19:38:42.670Z,1.92
2019-06-20T19:41:13.307Z,1.80
2019-06-20T19:43:43.506Z,2.27
2019-06-20T19:48:41.650Z,1.80
2019-06-20T19:53:40.783Z,1.67
2019-06-20T19:56:09.957Z,1.77
2019-06-20T19:58:39.309Z,2.12
2019-06-20T20:01:10.613Z,1.65
2019-06-20T20:03:40.116Z,1.12
2019-06-20T20:06:10.563Z,1.50
2019-06-20T20:08:40.311Z,1.60
2019-06-20T20:11:10.539Z,1.60
2019-06-20T20:13:40.039Z,1.80
2019-06-20T20:16:09.998Z,1.98
2019-06-20T20:18:40.088Z,1.98
2019-06-20T20:21:09.632Z,2.10
2019-06-20T20:23:38.894Z,1.90
2019-06-20T20:26:09.012Z,1.50
2019-06-20T20:28:39.319Z,1.70
2019-06-20T20:31:08.943Z,1.50
2019-06-20T20:33:38.355Z,1.62
2019-06-20T20:36:07.609Z,1.50
2019-06-20T20:38:38.320Z,1.70
2019-06-20T20:41:08.671Z,1.90
2019-06-20T20:43:38.594Z,1.72
2019-06-20T20:51:05.785Z,1.67
2019-06-20T20:53:35.059Z,1.67
2019-06-20T20:56:04.426Z,1.77
2019-06-20T20:58:34.068Z,1.40
2019-06-20T21:01:18.791Z,1.90
2019-06-20T21:06:17.732Z,1.70
2019-06-20T21:11:19.171Z,1.72
2019-06-20T21:13:48.093Z,1.70
2019-06-20T21:16:17.093Z,1.92
2019-06-20T21:18:46.433Z,2.00
2019-06-20T21:21:15.593Z,1.90
2019-06-20T21:23:45.091Z,1.57
2019-06-20T21:26:17.577Z,1.77
2019-06-20T21:28:47.058Z,1.95
2019-06-20T21:31:16.299Z,2.02
2019-06-20T21:33:45.154Z,1.67
2019-06-20T21:36:14.038Z,2.40
2019-06-20T21:38:42.945Z,2.33
2019-06-20T21:41:12.081Z,1.70
2019-06-20T21:43:41.152Z,2.58
2019-06-20T21:46:10.108Z,2.05
2019-06-20T21:48:39.232Z,2.17
2019-06-20T21:51:08.455Z,2.02
2019-06-20T21:53:37.693Z,2.27
2019-06-20T21:58:35.506Z,1.92
2019-06-20T22:01:05.764Z,2.10
2019-06-20T22:03:36.587Z,2.30
2019-06-20T22:06:05.758Z,2.10
2019-06-20T22:13:31.342Z,1.87
2019-06-20T22:16:00.584Z,2.20
2019-06-20T22:18:29.572Z,2.00
2019-06-20T22:20:58.748Z,2.08
2019-06-20T22:25:57.533Z,2.70
2019-06-20T22:28:26.708Z,2.30
2019-06-20T22:33:25.868Z,2.30
2019-06-20T22:35:55.527Z,2.58
2019-06-20T22:38:24.572Z,2.12
2019-06-20T22:40:53.934Z,2.72
2019-06-20T22:43:23.059Z,2.37
2019-06-20T22:45:52.577Z,2.42
2019-06-20T22:48:21.542Z,2.45
2019-06-20T22:50:50.544Z,2.20
2019-06-20T22:53:19.816Z,2.30
2019-06-20T22:55:48.809Z,2.58
2019-06-20T22:58:17.972Z,2.50
2019-06-20T23:00:47.464Z,2.47
2019-06-20T23:05:48.123Z,2.33
2019-06-20T23:08:17.102Z,2.45
2019-06-20T23:10:46.134Z,2.37
2019-06-20T23:13:15.062Z,2.50
2019-06-20T23:15:44.794Z,2.70
2019-06-20T23:18:13.534Z,2.60
2019-06-20T23:20:42.432Z,2.65
2019-06-20T23:23:11.436Z,2.67
2019-06-20T23:25:42.298Z,3.10
2019-06-20T23:28:11.064Z,3.05
2019-06-20T23:30:39.915Z,2.87
2019-06-20T23:33:08.963Z,2.60
2019-06-20T23:35:37.954Z,2.62
2019-06-20T23:38:06.927Z,2.40
2019-06-20T23:40:36.110Z,2.40
2019-06-20T23:43:05.376Z,2.17
2019-06-20T23:45:34.402Z,2.72
2019-06-20T23:48:03.590Z,2.30
2019-06-20T23:53:06.802Z,2.33
2019-06-20T23:58:03.957Z,2.00
